createdAt,value
2023-05-06T00:02:47.837Z,1.63
2023-05-06T00:17:49.576Z,1.80
2023-05-06T00:32:51.471Z,1.60
2023-05-06T00:47:53.674Z,1.77
2023-05-06T01:02:58.312Z,1.70
2023-05-06T01:18:04.609Z,1.63
2023-05-06T01:33:09.390Z,1.60
2023-05-06T01:48:11.952Z,1.60
2023-05-06T02:03:13.705Z,1.53
2023-05-06T02:18:15.420Z,1.70
2023-05-06T02:33:17.119Z,1.50
2023-05-06T02:48:18.985Z,1.57
2023-05-06T03:03:22.171Z,1.50
2023-05-06T03:18:23.992Z,1.90
2023-05-06T03:33:25.688Z,1.60
2023-05-06T03:48:27.388Z,1.70
2023-05-06T04:03:29.157Z,1.57
2023-05-06T04:18:30.990Z,1.70
2023-05-06T04:33:32.653Z,1.60
2023-05-06T04:48:34.302Z,1.73
2023-05-06T05:03:36.218Z,1.80
2023-05-06T05:18:37.954Z,1.87
2023-05-06T05:33:39.817Z,1.60
2023-05-06T05:48:41.521Z,1.50
2023-05-06T06:03:43.963Z,1.80
2023-05-06T06:18:45.963Z,1.77
2023-05-06T06:33:47.628Z,1.57
2023-05-06T06:48:49.357Z,1.33
2023-05-06T07:03:51.112Z,1.60
2023-05-06T07:18:52.854Z,1.47
2023-05-06T07:33:54.568Z,1.47
2023-05-06T07:48:56.263Z,1.50
2023-05-06T08:03:58.309Z,1.50
2023-05-06T08:19:00.131Z,1.60
2023-05-06T08:34:02.154Z,1.50
2023-05-06T08:49:03.801Z,1.30
2023-05-06T09:04:07.032Z,1.30
2023-05-06T09:19:09.022Z,1.40
2023-05-06T09:34:11.893Z,1.60
2023-05-06T09:49:13.858Z,1.50
2023-05-06T10:04:17.771Z,1.33
2023-05-06T10:19:23.819Z,1.40
2023-05-06T10:34:26.026Z,1.40
2023-05-06T10:49:28.002Z,1.33
2023-05-06T11:04:29.690Z,1.20
2023-05-06T11:19:33.170Z,1.27
2023-05-06T11:34:34.940Z,1.20
2023-05-06T11:49:41.752Z,1.13
2023-05-06T12:04:48.391Z,1.40
2023-05-06T12:19:50.851Z,1.40
2023-05-06T12:34:52.585Z,1.33
2023-05-06T12:49:55.552Z,1.30
2023-05-06T13:04:57.242Z,1.30
2023-05-06T13:19:59.051Z,1.13
2023-05-06T13:35:00.876Z,1.27
2023-05-06T13:50:02.674Z,1.30
2023-05-06T14:05:04.900Z,1.50
2023-05-06T14:20:07.686Z,1.10
2023-05-06T14:35:10.890Z,1.20
2023-05-06T14:50:13.085Z,1.30
2023-05-06T15:05:15.082Z,1.17
2023-05-06T15:20:16.957Z,1.10
2023-05-06T15:35:18.664Z,1.33
2023-05-06T15:50:32.604Z,1.40
2023-05-06T16:05:35.333Z,1.30
2023-05-06T16:20:37.220Z,1.30
2023-05-06T16:35:39.257Z,1.20
2023-05-06T16:50:41.788Z,1.30
2023-05-06T17:05:43.544Z,1.50
2023-05-06T17:20:55.138Z,1.23
2023-05-06T17:35:58.514Z,1.50
2023-05-06T17:51:00.967Z,1.60
2023-05-06T18:06:02.630Z,1.43
2023-05-06T18:21:04.309Z,1.50
2023-05-06T18:36:06.395Z,1.50
2023-05-06T18:51:15.896Z,1.60
2023-05-06T19:06:17.748Z,1.50
2023-05-06T19:21:19.774Z,1.53
2023-05-06T19:36:21.553Z,1.70
2023-05-06T19:51:23.247Z,1.70
2023-05-06T20:06:24.962Z,1.70
2023-05-06T20:21:26.660Z,1.90
2023-05-06T20:36:28.464Z,2.03
2023-05-06T20:51:30.263Z,1.80
2023-05-06T21:06:32.092Z,1.90
2023-05-06T21:21:34.105Z,2.00
2023-05-06T21:36:36.892Z,1.90
2023-05-06T21:51:38.663Z,1.97
2023-05-06T22:06:40.742Z,2.00
2023-05-06T22:21:42.440Z,2.10
2023-05-06T22:36:44.347Z,1.93
2023-05-06T22:51:46.219Z,1.87
2023-05-06T23:06:47.992Z,1.87
2023-05-06T23:21:49.704Z,2.00
2023-05-06T23:36:51.807Z,2.13
2023-05-06T23:51:53.464Z,2.30
